sensor_id;sensor_type;location;lat;lon;timestamp;P1;durP1;ratioP1;P2;durP2;ratioP2
68806;SDS011;55800;54.272;18.558;2023-03-19T00:01:17;46.58;;;26.00;;
68806;SDS011;55800;54.272;18.558;2023-03-19T00:03:46;38.85;;;24.08;;
68806;SDS011;55800;54.272;18.558;2023-03-19T00:06:15;43.70;;;24.80;;
68806;SDS011;55800;54.272;18.558;2023-03-19T00:08:45;43.30;;;24.30;;
68806;SDS011;55800;54.272;18.558;2023-03-19T00:11:14;33.80;;;22.73;;
68806;SDS011;55800;54.272;18.558;2023-03-19T00:13:44;43.75;;;24.00;;
68806;SDS011;55800;54.272;18.558;2023-03-19T00:16:14;42.97;;;23.73;;
68806;SDS011;55800;54.272;18.558;2023-03-19T00:18:43;43.58;;;25.08;;
68806;SDS011;55800;54.272;18.558;2023-03-19T00:21:12;40.83;;;21.10;;
68806;SDS011;55800;54.272;18.558;2023-03-19T00:23:41;38.15;;;23.10;;
68806;SDS011;55800;54.272;18.558;2023-03-19T00:26:11;40.20;;;21.50;;
68806;SDS011;55800;54.272;18.558;2023-03-19T00:28:40;35.78;;;19.35;;
68806;SDS011;55800;54.272;18.558;2023-03-19T00:31:11;41.28;;;23.75;;
68806;SDS011;55800;54.272;18.558;2023-03-19T00:33:42;37.70;;;21.67;;
68806;SDS011;55800;54.272;18.558;2023-03-19T00:36:12;38.53;;;22.95;;
68806;SDS011;55800;54.272;18.558;2023-03-19T00:43:41;30.98;;;20.13;;
68806;SDS011;55800;54.272;18.558;2023-03-19T00:46:13;36.88;;;21.80;;
68806;SDS011;55800;54.272;18.558;2023-03-19T00:48:42;37.28;;;21.42;;
68806;SDS011;55800;54.272;18.558;2023-03-19T00:51:12;33.30;;;22.08;;
68806;SDS011;55800;54.272;18.558;2023-03-19T00:53:42;44.42;;;22.30;;
68806;SDS011;55800;54.272;18.558;2023-03-19T00:56:12;38.85;;;21.90;;
68806;SDS011;55800;54.272;18.558;2023-03-19T00:58:45;35.28;;;21.40;;
68806;SDS011;55800;54.272;18.558;2023-03-19T01:01:16;34.72;;;20.38;;
68806;SDS011;55800;54.272;18.558;2023-03-19T01:03:45;35.55;;;22.05;;
68806;SDS011;55800;54.272;18.558;2023-03-19T01:06:16;36.50;;;21.63;;
68806;SDS011;55800;54.272;18.558;2023-03-19T01:08:46;47.40;;;24.80;;
68806;SDS011;55800;54.272;18.558;2023-03-19T01:11:16;37.10;;;21.85;;
68806;SDS011;55800;54.272;18.558;2023-03-19T01:13:46;41.08;;;21.42;;
68806;SDS011;55800;54.272;18.558;2023-03-19T01:16:17;41.95;;;22.65;;
68806;SDS011;55800;54.272;18.558;2023-03-19T01:18:46;47.03;;;22.85;;
68806;SDS011;55800;54.272;18.558;2023-03-19T01:21:15;40.58;;;22.00;;
68806;SDS011;55800;54.272;18.558;2023-03-19T01:23:47;37.88;;;24.08;;
68806;SDS011;55800;54.272;18.558;2023-03-19T01:26:19;40.00;;;21.77;;
68806;SDS011;55800;54.272;18.558;2023-03-19T01:28:52;38.78;;;23.45;;
68806;SDS011;55800;54.272;18.558;2023-03-19T01:34:13;38.70;;;23.08;;
68806;SDS011;55800;54.272;18.558;2023-03-19T01:36:49;42.80;;;21.48;;
68806;SDS011;55800;54.272;18.558;2023-03-19T01:39:25;35.85;;;22.75;;
68806;SDS011;55800;54.272;18.558;2023-03-19T01:41:59;39.85;;;24.20;;
68806;SDS011;55800;54.272;18.558;2023-03-19T01:47:37;40.47;;;21.25;;
68806;SDS011;55800;54.272;18.558;2023-03-19T01:50:10;35.42;;;20.65;;
68806;SDS011;55800;54.272;18.558;2023-03-19T01:53:26;39.35;;;21.42;;
68806;SDS011;55800;54.272;18.558;2023-03-19T01:56:11;41.47;;;21.50;;
68806;SDS011;55800;54.272;18.558;2023-03-19T01:58:56;43.25;;;23.45;;
68806;SDS011;55800;54.272;18.558;2023-03-19T02:01:54;41.00;;;23.60;;
68806;SDS011;55800;54.272;18.558;2023-03-19T02:04:28;41.08;;;24.70;;
68806;SDS011;55800;54.272;18.558;2023-03-19T02:06:59;45.33;;;24.55;;
68806;SDS011;55800;54.272;18.558;2023-03-19T02:09:31;44.25;;;24.50;;
68806;SDS011;55800;54.272;18.558;2023-03-19T02:12:01;51.22;;;28.40;;
68806;SDS011;55800;54.272;18.558;2023-03-19T02:14:32;40.25;;;23.77;;
68806;SDS011;55800;54.272;18.558;2023-03-19T02:17:01;39.38;;;22.65;;
68806;SDS011;55800;54.272;18.558;2023-03-19T02:19:34;48.40;;;26.05;;
68806;SDS011;55800;54.272;18.558;2023-03-19T02:22:07;45.90;;;24.40;;
68806;SDS011;55800;54.272;18.558;2023-03-19T02:24:39;48.50;;;26.23;;
68806;SDS011;55800;54.272;18.558;2023-03-19T02:27:20;41.70;;;24.40;;
68806;SDS011;55800;54.272;18.558;2023-03-19T02:29:50;45.45;;;25.67;;
68806;SDS011;55800;54.272;18.558;2023-03-19T02:32:21;40.38;;;25.88;;
68806;SDS011;55800;54.272;18.558;2023-03-19T02:34:51;49.47;;;25.90;;
68806;SDS011;55800;54.272;18.558;2023-03-19T02:37:21;39.45;;;24.33;;
68806;SDS011;55800;54.272;18.558;2023-03-19T02:40:00;44.53;;;26.00;;
68806;SDS011;55800;54.272;18.558;2023-03-19T02:42:35;48.03;;;27.85;;
68806;SDS011;55800;54.272;18.558;2023-03-19T02:45:05;53.47;;;27.30;;
68806;SDS011;55800;54.272;18.558;2023-03-19T02:47:35;49.25;;;28.90;;
68806;SDS011;55800;54.272;18.558;2023-03-19T02:50:05;43.17;;;25.23;;
68806;SDS011;55800;54.272;18.558;2023-03-19T02:52:36;45.95;;;26.00;;
68806;SDS011;55800;54.272;18.558;2023-03-19T02:55:05;41.75;;;25.50;;
68806;SDS011;55800;54.272;18.558;2023-03-19T02:57:36;44.50;;;26.35;;
68806;SDS011;55800;54.272;18.558;2023-03-19T03:00:06;42.10;;;24.08;;
68806;SDS011;55800;54.272;18.558;2023-03-19T03:02:37;41.85;;;24.23;;
68806;SDS011;55800;54.272;18.558;2023-03-19T03:05:07;42.13;;;25.48;;
68806;SDS011;55800;54.272;18.558;2023-03-19T03:07:36;45.50;;;24.83;;
68806;SDS011;55800;54.272;18.558;2023-03-19T03:12:37;47.08;;;27.00;;
68806;SDS011;55800;54.272;18.558;2023-03-19T03:15:06;45.78;;;27.23;;
68806;SDS011;55800;54.272;18.558;2023-03-19T03:17:36;47.00;;;26.48;;
68806;SDS011;55800;54.272;18.558;2023-03-19T03:20:08;61.30;;;28.75;;
68806;SDS011;55800;54.272;18.558;2023-03-19T03:22:39;52.83;;;28.10;;
68806;SDS011;55800;54.272;18.558;2023-03-19T03:25:09;43.65;;;25.77;;
68806;SDS011;55800;54.272;18.558;2023-03-19T03:27:41;50.20;;;26.65;;
68806;SDS011;55800;54.272;18.558;2023-03-19T03:33:56;40.20;;;23.30;;
68806;SDS011;55800;54.272;18.558;2023-03-19T03:36:25;47.38;;;24.80;;
68806;SDS011;55800;54.272;18.558;2023-03-19T03:38:56;42.47;;;25.40;;
68806;SDS011;55800;54.272;18.558;2023-03-19T03:41:25;42.53;;;27.25;;
68806;SDS011;55800;54.272;18.558;2023-03-19T03:43:56;37.60;;;22.70;;
68806;SDS011;55800;54.272;18.558;2023-03-19T03:46:25;37.03;;;23.27;;
68806;SDS011;55800;54.272;18.558;2023-03-19T03:48:55;39.55;;;23.48;;
68806;SDS011;55800;54.272;18.558;2023-03-19T03:51:25;45.15;;;23.65;;
68806;SDS011;55800;54.272;18.558;2023-03-19T03:53:54;40.40;;;22.70;;
68806;SDS011;55800;54.272;18.558;2023-03-19T03:56:23;39.58;;;22.38;;
68806;SDS011;55800;54.272;18.558;2023-03-19T03:58:56;36.75;;;22.65;;
68806;SDS011;55800;54.272;18.558;2023-03-19T04:01:26;41.72;;;23.15;;
68806;SDS011;55800;54.272;18.558;2023-03-19T04:06:25;43.75;;;22.10;;
68806;SDS011;55800;54.272;18.558;2023-03-19T04:09:18;40.53;;;23.05;;
68806;SDS011;55800;54.272;18.558;2023-03-19T04:11:48;34.63;;;22.95;;
68806;SDS011;55800;54.272;18.558;2023-03-19T04:16:48;36.08;;;21.60;;
68806;SDS011;55800;54.272;18.558;2023-03-19T04:19:18;41.30;;;22.23;;
68806;SDS011;55800;54.272;18.558;2023-03-19T04:21:47;38.22;;;21.92;;
68806;SDS011;55800;54.272;18.558;2023-03-19T04:24:16;39.28;;;23.25;;
68806;SDS011;55800;54.272;18.558;2023-03-19T04:26:46;45.20;;;23.42;;
68806;SDS011;55800;54.272;18.558;2023-03-19T04:29:19;36.83;;;21.13;;
68806;SDS011;55800;54.272;18.558;2023-03-19T04:31:50;34.90;;;21.02;;
68806;SDS011;55800;54.272;18.558;2023-03-19T04:34:20;47.22;;;24.00;;
68806;SDS011;55800;54.272;18.558;2023-03-19T04:36:49;42.00;;;22.63;;
68806;SDS011;55800;54.272;18.558;2023-03-19T04:39:19;45.28;;;23.60;;
68806;SDS011;55800;54.272;18.558;2023-03-19T04:41:50;37.67;;;23.63;;
68806;SDS011;55800;54.272;18.558;2023-03-19T04:44:28;46.65;;;24.33;;
68806;SDS011;55800;54.272;18.558;2023-03-19T04:47:00;42.38;;;23.20;;
68806;SDS011;55800;54.272;18.558;2023-03-19T04:49:37;43.72;;;24.13;;
68806;SDS011;55800;54.272;18.558;2023-03-19T04:52:07;36.35;;;23.52;;
68806;SDS011;55800;54.272;18.558;2023-03-19T04:54:36;51.55;;;25.42;;
68806;SDS011;55800;54.272;18.558;2023-03-19T04:57:07;38.47;;;22.63;;
68806;SDS011;55800;54.272;18.558;2023-03-19T04:59:41;36.00;;;23.25;;
68806;SDS011;55800;54.272;18.558;2023-03-19T05:02:12;42.72;;;22.88;;
68806;SDS011;55800;54.272;18.558;2023-03-19T05:04:42;39.50;;;24.92;;
68806;SDS011;55800;54.272;18.558;2023-03-19T05:07:13;45.47;;;26.27;;
68806;SDS011;55800;54.272;18.558;2023-03-19T05:09:43;41.45;;;24.92;;
68806;SDS011;55800;54.272;18.558;2023-03-19T05:12:14;42.10;;;22.40;;
68806;SDS011;55800;54.272;18.558;2023-03-19T05:14:49;33.65;;;21.35;;
68806;SDS011;55800;54.272;18.558;2023-03-19T05:17:29;39.92;;;21.98;;
68806;SDS011;55800;54.272;18.558;2023-03-19T05:20:09;37.40;;;21.63;;
68806;SDS011;55800;54.272;18.558;2023-03-19T05:22:50;40.45;;;22.98;;
68806;SDS011;55800;54.272;18.558;2023-03-19T05:25:26;43.67;;;21.98;;
68806;SDS011;55800;54.272;18.558;2023-03-19T05:27:57;36.00;;;21.10;;
68806;SDS011;55800;54.272;18.558;2023-03-19T05:30:28;35.65;;;21.15;;
68806;SDS011;55800;54.272;18.558;2023-03-19T05:33:27;34.38;;;21.05;;
68806;SDS011;55800;54.272;18.558;2023-03-19T05:35:58;36.63;;;22.30;;
68806;SDS011;55800;54.272;18.558;2023-03-19T05:38:40;42.50;;;22.33;;
68806;SDS011;55800;54.272;18.558;2023-03-19T05:41:15;40.05;;;23.98;;
68806;SDS011;55800;54.272;18.558;2023-03-19T05:43:54;47.67;;;24.30;;
68806;SDS011;55800;54.272;18.558;2023-03-19T05:46:45;36.10;;;23.35;;
68806;SDS011;55800;54.272;18.558;2023-03-19T05:49:17;43.03;;;24.77;;
68806;SDS011;55800;54.272;18.558;2023-03-19T05:51:46;39.10;;;22.67;;
68806;SDS011;55800;54.272;18.558;2023-03-19T05:54:16;41.35;;;22.98;;
68806;SDS011;55800;54.272;18.558;2023-03-19T05:56:57;35.47;;;21.02;;
68806;SDS011;55800;54.272;18.558;2023-03-19T05:59:47;40.00;;;19.85;;
68806;SDS011;55800;54.272;18.558;2023-03-19T06:02:24;36.05;;;21.50;;
68806;SDS011;55800;54.272;18.558;2023-03-19T06:05:20;38.55;;;21.05;;
68806;SDS011;55800;54.272;18.558;2023-03-19T06:07:52;37.28;;;23.15;;
68806;SDS011;55800;54.272;18.558;2023-03-19T06:10:49;40.20;;;23.17;;
68806;SDS011;55800;54.272;18.558;2023-03-19T06:13:21;42.78;;;24.05;;
68806;SDS011;55800;54.272;18.558;2023-03-19T06:16:03;41.63;;;24.40;;
68806;SDS011;55800;54.272;18.558;2023-03-19T06:18:38;47.25;;;26.30;;
68806;SDS011;55800;54.272;18.558;2023-03-19T06:21:10;40.30;;;24.67;;
68806;SDS011;55800;54.272;18.558;2023-03-19T06:23:40;45.17;;;26.77;;
68806;SDS011;55800;54.272;18.558;2023-03-19T06:26:12;52.47;;;26.48;;
68806;SDS011;55800;54.272;18.558;2023-03-19T06:28:48;41.55;;;23.90;;
68806;SDS011;55800;54.272;18.558;2023-03-19T06:31:18;38.15;;;24.38;;
68806;SDS011;55800;54.272;18.558;2023-03-19T06:34:02;42.50;;;26.95;;
68806;SDS011;55800;54.272;18.558;2023-03-19T06:36:38;35.53;;;23.40;;
68806;SDS011;55800;54.272;18.558;2023-03-19T06:39:14;51.17;;;24.45;;
68806;SDS011;55800;54.272;18.558;2023-03-19T06:41:43;45.25;;;27.02;;
68806;SDS011;55800;54.272;18.558;2023-03-19T06:44:17;43.67;;;25.92;;
68806;SDS011;55800;54.272;18.558;2023-03-19T06:46:50;44.08;;;25.23;;
68806;SDS011;55800;54.272;18.558;2023-03-19T06:49:22;46.92;;;27.05;;
68806;SDS011;55800;54.272;18.558;2023-03-19T06:51:52;43.20;;;27.10;;
68806;SDS011;55800;54.272;18.558;2023-03-19T06:54:21;46.53;;;27.45;;
68806;SDS011;55800;54.272;18.558;2023-03-19T06:56:51;48.85;;;27.85;;
68806;SDS011;55800;54.272;18.558;2023-03-19T06:59:20;45.17;;;26.20;;
68806;SDS011;55800;54.272;18.558;2023-03-19T07:01:51;42.90;;;26.15;;
68806;SDS011;55800;54.272;18.558;2023-03-19T07:04:23;44.08;;;26.20;;
68806;SDS011;55800;54.272;18.558;2023-03-19T07:06:52;43.42;;;27.30;;
68806;SDS011;55800;54.272;18.558;2023-03-19T07:09:22;40.53;;;25.95;;
68806;SDS011;55800;54.272;18.558;2023-03-19T07:11:53;46.22;;;26.58;;
68806;SDS011;55800;54.272;18.558;2023-03-19T07:14:22;43.78;;;26.90;;
68806;SDS011;55800;54.272;18.558;2023-03-19T07:16:52;43.22;;;26.13;;
68806;SDS011;55800;54.272;18.558;2023-03-19T07:19:21;39.83;;;24.20;;
68806;SDS011;55800;54.272;18.558;2023-03-19T07:21:52;45.58;;;26.45;;
68806;SDS011;55800;54.272;18.558;2023-03-19T07:24:24;39.63;;;24.83;;
68806;SDS011;55800;54.272;18.558;2023-03-19T07:26:54;39.97;;;21.85;;
68806;SDS011;55800;54.272;18.558;2023-03-19T07:29:25;43.08;;;25.38;;
68806;SDS011;55800;54.272;18.558;2023-03-19T07:31:54;40.53;;;23.05;;
68806;SDS011;55800;54.272;18.558;2023-03-19T07:34:25;44.97;;;26.33;;
68806;SDS011;55800;54.272;18.558;2023-03-19T07:36:55;39.85;;;23.27;;
68806;SDS011;55800;54.272;18.558;2023-03-19T07:39:24;47.42;;;23.13;;
68806;SDS011;55800;54.272;18.558;2023-03-19T07:41:54;40.70;;;21.20;;
68806;SDS011;55800;54.272;18.558;2023-03-19T07:44:23;44.88;;;24.17;;
68806;SDS011;55800;54.272;18.558;2023-03-19T07:46:53;43.40;;;23.85;;
68806;SDS011;55800;54.272;18.558;2023-03-19T07:49:23;40.28;;;22.35;;
68806;SDS011;55800;54.272;18.558;2023-03-19T07:51:53;39.10;;;22.77;;
68806;SDS011;55800;54.272;18.558;2023-03-19T07:54:23;40.38;;;23.42;;
68806;SDS011;55800;54.272;18.558;2023-03-19T07:56:52;43.78;;;22.88;;
68806;SDS011;55800;54.272;18.558;2023-03-19T07:59:24;38.45;;;24.63;;
68806;SDS011;55800;54.272;18.558;2023-03-19T08:01:53;34.75;;;23.35;;
68806;SDS011;55800;54.272;18.558;2023-03-19T08:04:23;39.67;;;23.20;;
68806;SDS011;55800;54.272;18.558;2023-03-19T08:06:53;47.88;;;26.15;;
68806;SDS011;55800;54.272;18.558;2023-03-19T08:09:23;43.72;;;27.40;;
68806;SDS011;55800;54.272;18.558;2023-03-19T08:11:53;40.25;;;25.65;;
68806;SDS011;55800;54.272;18.558;2023-03-19T08:14:22;33.55;;;21.08;;
68806;SDS011;55800;54.272;18.558;2023-03-19T08:16:52;41.10;;;22.95;;
68806;SDS011;55800;54.272;18.558;2023-03-19T08:19:21;43.78;;;27.30;;
68806;SDS011;55800;54.272;18.558;2023-03-19T08:21:53;45.13;;;26.52;;
68806;SDS011;55800;54.272;18.558;2023-03-19T08:24:23;44.88;;;26.77;;
68806;SDS011;55800;54.272;18.558;2023-03-19T08:26:53;46.55;;;28.23;;
68806;SDS011;55800;54.272;18.558;2023-03-19T08:31:54;42.05;;;23.08;;
68806;SDS011;55800;54.272;18.558;2023-03-19T08:34:25;43.30;;;26.77;;
68806;SDS011;55800;54.272;18.558;2023-03-19T08:36:55;44.55;;;26.17;;
68806;SDS011;55800;54.272;18.558;2023-03-19T08:39:25;42.33;;;26.27;;
68806;SDS011;55800;54.272;18.558;2023-03-19T08:44:24;50.08;;;27.60;;
68806;SDS011;55800;54.272;18.558;2023-03-19T08:46:53;47.25;;;29.52;;
68806;SDS011;55800;54.272;18.558;2023-03-19T08:49:24;52.80;;;30.23;;
68806;SDS011;55800;54.272;18.558;2023-03-19T08:51:53;46.20;;;28.00;;
68806;SDS011;55800;54.272;18.558;2023-03-19T08:54:24;50.80;;;28.98;;
68806;SDS011;55800;54.272;18.558;2023-03-19T08:56:54;46.00;;;27.88;;
68806;SDS011;55800;54.272;18.558;2023-03-19T08:59:25;54.28;;;30.80;;
68806;SDS011;55800;54.272;18.558;2023-03-19T09:01:57;54.58;;;31.90;;
68806;SDS011;55800;54.272;18.558;2023-03-19T09:04:27;55.28;;;29.70;;
68806;SDS011;55800;54.272;18.558;2023-03-19T09:06:57;53.03;;;30.13;;
68806;SDS011;55800;54.272;18.558;2023-03-19T09:09:28;52.50;;;31.88;;
68806;SDS011;55800;54.272;18.558;2023-03-19T09:14:27;51.90;;;27.98;;
68806;SDS011;55800;54.272;18.558;2023-03-19T09:16:57;50.10;;;26.98;;
68806;SDS011;55800;54.272;18.558;2023-03-19T09:19:28;53.38;;;26.80;;
68806;SDS011;55800;54.272;18.558;2023-03-19T09:21:59;50.83;;;27.85;;
68806;SDS011;55800;54.272;18.558;2023-03-19T09:24:29;51.80;;;28.33;;
68806;SDS011;55800;54.272;18.558;2023-03-19T09:26:58;50.50;;;26.00;;
68806;SDS011;55800;54.272;18.558;2023-03-19T09:29:27;39.95;;;23.67;;
68806;SDS011;55800;54.272;18.558;2023-03-19T09:31:57;39.85;;;23.13;;
68806;SDS011;55800;54.272;18.558;2023-03-19T09:34:27;37.25;;;20.67;;
68806;SDS011;55800;54.272;18.558;2023-03-19T09:36:56;35.47;;;19.73;;
68806;SDS011;55800;54.272;18.558;2023-03-19T09:39:27;32.65;;;18.67;;
68806;SDS011;55800;54.272;18.558;2023-03-19T09:42:04;35.40;;;17.92;;
68806;SDS011;55800;54.272;18.558;2023-03-19T09:44:42;37.10;;;18.02;;
68806;SDS011;55800;54.272;18.558;2023-03-19T09:47:20;32.58;;;17.90;;
68806;SDS011;55800;54.272;18.558;2023-03-19T09:49:53;34.20;;;16.92;;
68806;SDS011;55800;54.272;18.558;2023-03-19T09:52:32;29.08;;;14.95;;
68806;SDS011;55800;54.272;18.558;2023-03-19T09:55:17;26.38;;;14.35;;
68806;SDS011;55800;54.272;18.558;2023-03-19T09:57:58;32.75;;;18.20;;
68806;SDS011;55800;54.272;18.558;2023-03-19T10:00:29;28.98;;;16.38;;
68806;SDS011;55800;54.272;18.558;2023-03-19T10:03:03;25.75;;;14.88;;
68806;SDS011;55800;54.272;18.558;2023-03-19T10:05:43;27.45;;;14.73;;
68806;SDS011;55800;54.272;18.558;2023-03-19T10:08:30;29.15;;;16.73;;
68806;SDS011;55800;54.272;18.558;2023-03-19T10:11:28;30.38;;;16.13;;
68806;SDS011;55800;54.272;18.558;2023-03-19T10:14:14;31.20;;;15.60;;
68806;SDS011;55800;54.272;18.558;2023-03-19T10:16:57;25.90;;;15.57;;
68806;SDS011;55800;54.272;18.558;2023-03-19T10:19:29;31.08;;;18.08;;
68806;SDS011;55800;54.272;18.558;2023-03-19T10:22:09;31.65;;;16.48;;
68806;SDS011;55800;54.272;18.558;2023-03-19T10:24:45;29.70;;;15.95;;
68806;SDS011;55800;54.272;18.558;2023-03-19T10:27:17;31.42;;;16.90;;
68806;SDS011;55800;54.272;18.558;2023-03-19T10:29:48;29.17;;;17.08;;
68806;SDS011;55800;54.272;18.558;2023-03-19T10:34:47;31.80;;;17.88;;
68806;SDS011;55800;54.272;18.558;2023-03-19T10:37:20;38.67;;;17.08;;
68806;SDS011;55800;54.272;18.558;2023-03-19T10:39:54;32.55;;;19.52;;
68806;SDS011;55800;54.272;18.558;2023-03-19T10:42:41;30.65;;;17.35;;
68806;SDS011;55800;54.272;18.558;2023-03-19T10:45:23;29.33;;;15.63;;
68806;SDS011;55800;54.272;18.558;2023-03-19T10:47:57;27.42;;;15.18;;
68806;SDS011;55800;54.272;18.558;2023-03-19T10:50:31;31.38;;;17.92;;
68806;SDS011;55800;54.272;18.558;2023-03-19T10:53:20;25.15;;;13.45;;
68806;SDS011;55800;54.272;18.558;2023-03-19T10:56:02;34.42;;;17.00;;
68806;SDS011;55800;54.272;18.558;2023-03-19T10:58:36;23.30;;;15.10;;
68806;SDS011;55800;54.272;18.558;2023-03-19T11:01:07;28.52;;;14.05;;
68806;SDS011;55800;54.272;18.558;2023-03-19T11:03:40;23.75;;;13.25;;
68806;SDS011;55800;54.272;18.558;2023-03-19T11:06:19;20.88;;;12.35;;
68806;SDS011;55800;54.272;18.558;2023-03-19T11:08:54;23.75;;;11.65;;
68806;SDS011;55800;54.272;18.558;2023-03-19T11:11:31;25.55;;;13.50;;
68806;SDS011;55800;54.272;18.558;2023-03-19T11:14:07;25.05;;;13.50;;
68806;SDS011;55800;54.272;18.558;2023-03-19T11:16:48;19.50;;;13.82;;
68806;SDS011;55800;54.272;18.558;2023-03-19T11:19:23;26.50;;;13.82;;
68806;SDS011;55800;54.272;18.558;2023-03-19T11:21:59;22.00;;;14.85;;
68806;SDS011;55800;54.272;18.558;2023-03-19T11:24:36;26.05;;;14.10;;
68806;SDS011;55800;54.272;18.558;2023-03-19T11:27:08;24.20;;;12.95;;
68806;SDS011;55800;54.272;18.558;2023-03-19T11:29:41;22.33;;;13.00;;
68806;SDS011;55800;54.272;18.558;2023-03-19T11:32:15;25.90;;;13.23;;
68806;SDS011;55800;54.272;18.558;2023-03-19T11:35:04;25.27;;;13.07;;
68806;SDS011;55800;54.272;18.558;2023-03-19T11:37:44;29.38;;;13.95;;
68806;SDS011;55800;54.272;18.558;2023-03-19T11:40:32;22.48;;;12.18;;
68806;SDS011;55800;54.272;18.558;2023-03-19T11:43:22;23.23;;;12.27;;
68806;SDS011;55800;54.272;18.558;2023-03-19T11:46:06;22.60;;;11.80;;
68806;SDS011;55800;54.272;18.558;2023-03-19T11:48:49;19.70;;;11.50;;
68806;SDS011;55800;54.272;18.558;2023-03-19T11:51:36;20.63;;;11.52;;
68806;SDS011;55800;54.272;18.558;2023-03-19T11:54:14;22.73;;;11.93;;
68806;SDS011;55800;54.272;18.558;2023-03-19T11:56:53;18.15;;;10.55;;
68806;SDS011;55800;54.272;18.558;2023-03-19T11:59:36;18.80;;;10.90;;
68806;SDS011;55800;54.272;18.558;2023-03-19T12:02:31;19.45;;;11.35;;
68806;SDS011;55800;54.272;18.558;2023-03-19T12:05:23;21.23;;;12.23;;
68806;SDS011;55800;54.272;18.558;2023-03-19T12:08:11;19.27;;;10.23;;
68806;SDS011;55800;54.272;18.558;2023-03-19T12:10:56;20.42;;;11.18;;
68806;SDS011;55800;54.272;18.558;2023-03-19T12:13:37;17.80;;;11.18;;
68806;SDS011;55800;54.272;18.558;2023-03-19T12:16:26;19.92;;;11.48;;
68806;SDS011;55800;54.272;18.558;2023-03-19T12:22:18;24.90;;;12.32;;
68806;SDS011;55800;54.272;18.558;2023-03-19T12:25:07;19.02;;;10.98;;
68806;SDS011;55800;54.272;18.558;2023-03-19T12:27:53;18.80;;;11.88;;
68806;SDS011;55800;54.272;18.558;2023-03-19T12:30:31;20.38;;;11.63;;
68806;SDS011;55800;54.272;18.558;2023-03-19T12:36:02;19.15;;;11.35;;
68806;SDS011;55800;54.272;18.558;2023-03-19T12:38:37;20.98;;;10.63;;
68806;SDS011;55800;54.272;18.558;2023-03-19T12:41:10;50.67;;;13.63;;
68806;SDS011;55800;54.272;18.558;2023-03-19T12:43:45;19.25;;;11.20;;
68806;SDS011;55800;54.272;18.558;2023-03-19T12:46:22;23.98;;;10.60;;
68806;SDS011;55800;54.272;18.558;2023-03-19T12:48:57;22.02;;;12.02;;
68806;SDS011;55800;54.272;18.558;2023-03-19T12:51:31;22.33;;;12.68;;
68806;SDS011;55800;54.272;18.558;2023-03-19T12:54:05;21.40;;;10.82;;
68806;SDS011;55800;54.272;18.558;2023-03-19T12:56:42;24.63;;;12.05;;
68806;SDS011;55800;54.272;18.558;2023-03-19T12:59:17;22.25;;;11.20;;
68806;SDS011;55800;54.272;18.558;2023-03-19T13:01:57;22.33;;;12.23;;
68806;SDS011;55800;54.272;18.558;2023-03-19T13:04:34;18.58;;;12.25;;
68806;SDS011;55800;54.272;18.558;2023-03-19T13:07:13;19.55;;;12.00;;
68806;SDS011;55800;54.272;18.558;2023-03-19T13:09:49;21.20;;;11.95;;
68806;SDS011;55800;54.272;18.558;2023-03-19T13:12:26;18.23;;;11.10;;
68806;SDS011;55800;54.272;18.558;2023-03-19T13:14:59;21.35;;;12.55;;
68806;SDS011;55800;54.272;18.558;2023-03-19T13:17:41;20.25;;;11.70;;
68806;SDS011;55800;54.272;18.558;2023-03-19T13:20:25;19.85;;;12.35;;
68806;SDS011;55800;54.272;18.558;2023-03-19T13:23:03;21.17;;;10.93;;
68806;SDS011;55800;54.272;18.558;2023-03-19T13:25:36;21.20;;;11.98;;
68806;SDS011;55800;54.272;18.558;2023-03-19T13:28:09;21.52;;;10.43;;
68806;SDS011;55800;54.272;18.558;2023-03-19T13:30:56;20.20;;;11.40;;
68806;SDS011;55800;54.272;18.558;2023-03-19T13:33:28;19.13;;;11.55;;
68806;SDS011;55800;54.272;18.558;2023-03-19T13:36:01;22.50;;;13.15;;
68806;SDS011;55800;54.272;18.558;2023-03-19T13:38:37;20.00;;;12.32;;
68806;SDS011;55800;54.272;18.558;2023-03-19T13:44:23;19.73;;;12.80;;
68806;SDS011;55800;54.272;18.558;2023-03-19T13:47:02;18.60;;;11.35;;
68806;SDS011;55800;54.272;18.558;2023-03-19T13:50:00;20.38;;;11.65;;
68806;SDS011;55800;54.272;18.558;2023-03-19T13:52:48;20.83;;;12.05;;
68806;SDS011;55800;54.272;18.558;2023-03-19T13:55:27;17.92;;;10.75;;
68806;SDS011;55800;54.272;18.558;2023-03-19T13:58:05;22.33;;;11.20;;
68806;SDS011;55800;54.272;18.558;2023-03-19T14:01:05;18.75;;;11.57;;
68806;SDS011;55800;54.272;18.558;2023-03-19T14:03:38;17.85;;;11.38;;
68806;SDS011;55800;54.272;18.558;2023-03-19T14:06:29;24.35;;;11.73;;
68806;SDS011;55800;54.272;18.558;2023-03-19T14:09:04;21.60;;;12.38;;
68806;SDS011;55800;54.272;18.558;2023-03-19T14:12:07;23.80;;;11.95;;
68806;SDS011;55800;54.272;18.558;2023-03-19T14:14:54;21.33;;;11.43;;
68806;SDS011;55800;54.272;18.558;2023-03-19T14:17:32;20.92;;;11.63;;
68806;SDS011;55800;54.272;18.558;2023-03-19T14:20:16;22.48;;;13.52;;
68806;SDS011;55800;54.272;18.558;2023-03-19T14:23:17;21.05;;;12.15;;
68806;SDS011;55800;54.272;18.558;2023-03-19T14:26:08;22.02;;;11.98;;
68806;SDS011;55800;54.272;18.558;2023-03-19T14:28:52;20.33;;;11.00;;
68806;SDS011;55800;54.272;18.558;2023-03-19T14:31:30;19.52;;;13.23;;
68806;SDS011;55800;54.272;18.558;2023-03-19T14:34:06;26.42;;;12.85;;
68806;SDS011;55800;54.272;18.558;2023-03-19T14:36:55;20.27;;;12.20;;
68806;SDS011;55800;54.272;18.558;2023-03-19T14:39:29;21.73;;;10.73;;
68806;SDS011;55800;54.272;18.558;2023-03-19T14:42:04;24.13;;;12.18;;
68806;SDS011;55800;54.272;18.558;2023-03-19T14:44:46;18.45;;;11.65;;
68806;SDS011;55800;54.272;18.558;2023-03-19T14:47:52;22.02;;;13.35;;
68806;SDS011;55800;54.272;18.558;2023-03-19T14:53:34;27.15;;;16.05;;
68806;SDS011;55800;54.272;18.558;2023-03-19T14:56:11;27.10;;;18.13;;
68806;SDS011;55800;54.272;18.558;2023-03-19T14:58:51;36.75;;;18.58;;
68806;SDS011;55800;54.272;18.558;2023-03-19T15:01:23;28.95;;;17.48;;
68806;SDS011;55800;54.272;18.558;2023-03-19T15:03:54;28.85;;;18.08;;
68806;SDS011;55800;54.272;18.558;2023-03-19T15:06:30;29.30;;;18.75;;
68806;SDS011;55800;54.272;18.558;2023-03-19T15:09:05;31.92;;;18.75;;
68806;SDS011;55800;54.272;18.558;2023-03-19T15:11:45;36.22;;;20.75;;
68806;SDS011;55800;54.272;18.558;2023-03-19T15:14:36;31.33;;;19.58;;
68806;SDS011;55800;54.272;18.558;2023-03-19T15:17:22;30.05;;;20.95;;
68806;SDS011;55800;54.272;18.558;2023-03-19T15:19:54;31.25;;;21.75;;
68806;SDS011;55800;54.272;18.558;2023-03-19T15:22:31;41.08;;;21.85;;
68806;SDS011;55800;54.272;18.558;2023-03-19T15:25:04;33.10;;;21.90;;
68806;SDS011;55800;54.272;18.558;2023-03-19T15:27:42;34.40;;;19.67;;
68806;SDS011;55800;54.272;18.558;2023-03-19T15:30:22;36.83;;;21.48;;
68806;SDS011;55800;54.272;18.558;2023-03-19T15:32:57;31.23;;;21.13;;
68806;SDS011;55800;54.272;18.558;2023-03-19T15:35:46;42.10;;;22.20;;
68806;SDS011;55800;54.272;18.558;2023-03-19T15:38:16;34.75;;;21.10;;